createdAt,value
2019-05-02T00:00:12.931Z,45.50
2019-05-02T00:02:45.683Z,46.00
2019-05-02T00:05:19.578Z,42.80
2019-05-02T00:07:53.894Z,37.23
2019-05-02T00:10:27.809Z,44.47
2019-05-02T00:13:01.029Z,48.17
2019-05-02T00:15:37.731Z,41.80
2019-05-02T00:18:07.453Z,40.77
2019-05-02T00:20:39.769Z,43.87
2019-05-02T00:23:12.133Z,43.60
2019-05-02T00:25:47.401Z,47.90
2019-05-02T00:28:18.577Z,37.23
2019-05-02T00:30:49.940Z,44.47
2019-05-02T00:33:21.061Z,42.67
2019-05-02T00:35:53.753Z,44.87
2019-05-02T00:38:25.631Z,42.87
2019-05-02T00:41:02.277Z,44.07
2019-05-02T00:43:34.586Z,42.60
2019-05-02T00:46:06.706Z,44.13
2019-05-02T00:48:39.802Z,42.60
2019-05-02T00:51:12.114Z,48.10
2019-05-02T00:53:48.411Z,47.10
2019-05-02T00:56:18.311Z,43.57
2019-05-02T00:58:49.788Z,35.87
2019-05-02T01:01:29.678Z,46.97
2019-05-02T01:04:00.944Z,46.17
2019-05-02T01:06:34.244Z,42.43
2019-05-02T01:09:11.118Z,46.20
2019-05-02T01:11:44.275Z,45.77
2019-05-02T01:14:17.679Z,45.90
2019-05-02T01:16:54.508Z,44.10
2019-05-02T01:19:24.175Z,36.27
2019-05-02T01:21:55.906Z,43.80
2019-05-02T01:24:28.404Z,41.43
2019-05-02T01:27:08.745Z,44.37
2019-05-02T01:30:01.434Z,44.63
2019-05-02T01:32:33.233Z,45.03
2019-05-02T01:35:09.380Z,33.83
2019-05-02T01:37:59.786Z,42.83
2019-05-02T01:40:32.443Z,46.27
2019-05-02T01:43:24.186Z,43.13
2019-05-02T01:45:57.641Z,47.97
2019-05-02T01:48:30.030Z,40.73
2019-05-02T01:51:04.527Z,35.43
2019-05-02T01:53:35.962Z,47.20
2019-05-02T01:56:08.939Z,44.93
2019-05-02T01:58:40.874Z,38.77
2019-05-02T02:01:16.089Z,43.07
2019-05-02T02:03:48.005Z,44.47
2019-05-02T02:06:20.497Z,47.00
2019-05-02T02:08:52.234Z,47.60
2019-05-02T02:11:28.310Z,36.57
2019-05-02T02:13:59.949Z,43.77
2019-05-02T02:16:35.198Z,47.70
2019-05-02T02:19:09.175Z,48.30
2019-05-02T02:21:44.864Z,48.30
2019-05-02T02:24:21.053Z,38.70
2019-05-02T02:26:54.061Z,50.67
2019-05-02T02:29:26.650Z,45.67
2019-05-02T02:31:59.418Z,51.27
2019-05-02T02:34:32.597Z,48.17
2019-05-02T02:37:12.251Z,45.53
2019-05-02T02:39:40.754Z,48.70
2019-05-02T02:42:12.641Z,43.80
2019-05-02T02:44:46.822Z,48.77
2019-05-02T02:47:21.096Z,56.00
2019-05-02T02:50:02.499Z,55.47
2019-05-02T02:52:28.497Z,50.13
2019-05-02T02:55:03.078Z,48.30
2019-05-02T02:57:33.821Z,50.87
2019-05-02T03:00:16.253Z,54.47
2019-05-02T03:02:50.111Z,98.13
2019-05-02T03:05:26.136Z,58.23
2019-05-02T03:07:59.824Z,53.83
2019-05-02T03:10:30.126Z,54.87
2019-05-02T03:13:21.822Z,44.30
2019-05-02T03:16:14.329Z,56.37
2019-05-02T03:18:47.304Z,56.93
2019-05-02T03:21:22.311Z,58.03
2019-05-02T03:24:01.649Z,57.60
2019-05-02T03:26:29.934Z,52.97
2019-05-02T03:29:01.895Z,58.70
2019-05-02T03:31:33.765Z,43.57
2019-05-02T03:34:06.190Z,54.87
2019-05-02T03:36:40.408Z,59.23
2019-05-02T03:39:15.003Z,57.13
2019-05-02T03:41:46.766Z,64.13
2019-05-02T03:44:25.702Z,56.57
2019-05-02T03:46:54.182Z,46.37
2019-05-02T03:49:26.571Z,54.33
2019-05-02T03:52:02.852Z,59.90
2019-05-02T03:54:31.497Z,56.00
2019-05-02T03:57:04.059Z,60.07
2019-05-02T03:59:38.756Z,57.03
2019-05-02T04:02:14.250Z,47.70
2019-05-02T04:04:45.470Z,62.07
2019-05-02T04:07:17.910Z,59.13
2019-05-02T04:09:49.669Z,60.97
2019-05-02T04:12:22.744Z,60.87
2019-05-02T04:14:55.954Z,62.93
2019-05-02T04:17:35.759Z,57.80
2019-05-02T04:20:09.620Z,57.47
2019-05-02T04:22:42.928Z,57.07
2019-05-02T04:25:15.718Z,61.03
2019-05-02T04:27:48.417Z,49.03
2019-05-02T04:30:22.446Z,61.80
2019-05-02T04:32:57.862Z,63.53
2019-05-02T04:35:34.811Z,61.50
2019-05-02T04:38:12.145Z,63.90
2019-05-02T04:40:41.834Z,63.20
2019-05-02T04:43:13.467Z,57.03
2019-05-02T04:45:56.145Z,68.20
2019-05-02T04:48:21.091Z,66.03
2019-05-02T04:50:59.691Z,66.67
2019-05-02T04:53:36.684Z,65.67
2019-05-02T04:56:06.869Z,53.30
2019-05-02T04:58:40.470Z,74.10
2019-05-02T05:01:10.982Z,68.60
2019-05-02T05:03:49.132Z,78.63
2019-05-02T05:06:19.743Z,78.97
2019-05-02T05:08:54.330Z,76.43
2019-05-02T05:11:27.456Z,82.33
2019-05-02T05:14:00.385Z,84.80
2019-05-02T05:16:33.165Z,86.53
2019-05-02T05:19:07.637Z,83.87
2019-05-02T05:21:40.329Z,87.07
2019-05-02T05:24:18.013Z,67.80
2019-05-02T05:26:52.368Z,80.77
2019-05-02T05:29:26.978Z,79.23
2019-05-02T05:32:05.158Z,88.70
2019-05-02T05:34:33.161Z,63.87
2019-05-02T05:39:59.882Z,85.53
2019-05-02T05:42:37.817Z,67.10
2019-05-02T05:45:13.836Z,74.60
2019-05-02T05:47:47.790Z,73.93
2019-05-02T05:50:20.097Z,62.03
2019-05-02T05:52:52.128Z,83.60
2019-05-02T05:55:24.680Z,76.00
2019-05-02T05:58:03.131Z,78.47
2019-05-02T06:00:33.516Z,67.20
2019-05-02T06:03:14.044Z,80.37
2019-05-02T06:05:42.281Z,78.67
2019-05-02T06:08:18.578Z,82.33
2019-05-02T06:10:51.181Z,60.50
2019-05-02T06:13:25.181Z,74.27
2019-05-02T06:16:02.586Z,69.73
2019-05-02T06:18:30.151Z,70.97
2019-05-02T06:21:03.288Z,62.33
2019-05-02T06:23:41.266Z,94.33
2019-05-02T06:26:13.463Z,109.67
2019-05-02T06:28:45.169Z,108.53
2019-05-02T06:31:17.141Z,99.20
2019-05-02T06:33:52.393Z,72.07
2019-05-02T06:36:27.211Z,66.93
2019-05-02T06:39:00.017Z,53.93
2019-05-02T06:41:32.560Z,55.60
2019-05-02T06:44:04.321Z,50.07
2019-05-02T06:46:37.018Z,54.20
2019-05-02T06:49:09.418Z,50.87
2019-05-02T06:51:41.714Z,48.00
2019-05-02T06:54:18.036Z,38.23
2019-05-02T06:56:49.142Z,41.30
2019-05-02T06:59:21.869Z,46.53
2019-05-02T07:01:57.450Z,44.17
2019-05-02T07:04:27.481Z,37.77
2019-05-02T07:06:59.797Z,41.93
2019-05-02T07:09:40.302Z,61.47
2019-05-02T07:12:09.941Z,39.93
2019-05-02T07:14:41.247Z,37.03
2019-05-02T07:17:32.133Z,32.30
2019-05-02T07:20:07.624Z,33.10
2019-05-02T07:22:40.834Z,29.03
2019-05-02T07:25:13.777Z,40.63
2019-05-02T07:27:47.394Z,40.43
2019-05-02T07:30:20.310Z,31.43
2019-05-02T07:32:56.272Z,41.70
2019-05-02T07:35:29.374Z,39.80
2019-05-02T07:38:00.738Z,37.27
2019-05-02T07:40:33.225Z,45.77
2019-05-02T07:43:05.326Z,46.70
2019-05-02T07:45:40.381Z,46.83
2019-05-02T07:48:12.455Z,50.07
2019-05-02T07:50:46.452Z,51.33
2019-05-02T07:53:19.181Z,38.87
2019-05-02T07:55:50.503Z,55.40
2019-05-02T07:58:24.488Z,58.73
2019-05-02T08:00:57.145Z,51.57
2019-05-02T08:03:29.377Z,50.13
2019-05-02T08:06:03.915Z,55.60
2019-05-02T08:08:36.440Z,53.17
2019-05-02T08:11:09.533Z,51.77
2019-05-02T08:13:44.037Z,58.37
2019-05-02T08:16:16.466Z,59.93
2019-05-02T08:18:49.096Z,57.83
2019-05-02T08:21:20.561Z,65.47
2019-05-02T08:23:57.063Z,60.50
2019-05-02T08:26:28.501Z,59.87
2019-05-02T08:29:10.282Z,53.77
2019-05-02T08:31:42.755Z,64.20
2019-05-02T08:34:16.878Z,68.43
2019-05-02T08:36:49.961Z,66.10
2019-05-02T08:39:25.979Z,64.90
2019-05-02T08:41:57.909Z,64.63
2019-05-02T08:44:29.421Z,65.30
2019-05-02T08:47:01.487Z,68.07
2019-05-02T08:49:36.194Z,76.30
2019-05-02T08:52:10.165Z,66.50
2019-05-02T08:54:42.550Z,56.37
2019-05-02T08:57:14.398Z,66.77
2019-05-02T08:59:47.093Z,74.20
2019-05-02T09:02:25.437Z,68.47
2019-05-02T09:04:58.822Z,74.50
2019-05-02T09:07:31.632Z,75.23
2019-05-02T09:10:05.809Z,74.50
2019-05-02T09:12:36.906Z,67.13
2019-05-02T09:15:11.805Z,70.93
2019-05-02T09:17:51.236Z,66.10
2019-05-02T09:20:20.864Z,70.93
2019-05-02T09:22:55.947Z,67.80
2019-05-02T09:25:25.528Z,61.67
2019-05-02T09:27:58.197Z,63.73
2019-05-02T09:30:32.693Z,64.70
2019-05-02T09:33:06.553Z,67.70
2019-05-02T09:35:38.643Z,71.23
2019-05-02T09:38:12.958Z,61.20
2019-05-02T09:40:47.161Z,64.73
2019-05-02T09:43:19.377Z,64.57
2019-05-02T09:45:52.126Z,66.93
2019-05-02T09:48:26.777Z,67.77
2019-05-02T09:51:05.452Z,65.93
2019-05-02T09:53:34.596Z,71.40
2019-05-02T09:56:08.154Z,72.13
2019-05-02T09:58:42.015Z,67.10
2019-05-02T10:01:22.703Z,53.10
2019-05-02T10:03:53.738Z,61.10
2019-05-02T10:06:25.478Z,66.70
2019-05-02T10:08:58.557Z,64.57
2019-05-02T10:11:33.215Z,71.90
2019-05-02T10:14:06.133Z,68.13
2019-05-02T10:16:38.928Z,64.23
2019-05-02T10:19:11.468Z,66.33
2019-05-02T10:21:47.055Z,66.67
2019-05-02T10:24:22.040Z,71.13
2019-05-02T10:26:55.192Z,67.83
2019-05-02T10:29:28.378Z,69.90
2019-05-02T10:32:02.789Z,66.87
2019-05-02T10:34:34.318Z,74.33
2019-05-02T10:37:06.835Z,67.90
2019-05-02T10:39:42.245Z,65.40
2019-05-02T10:42:15.048Z,65.70
2019-05-02T10:44:47.872Z,65.43
2019-05-02T10:47:19.702Z,66.47
2019-05-02T10:49:56.709Z,66.60
2019-05-02T10:52:33.912Z,64.73
2019-05-02T10:55:05.340Z,63.50
2019-05-02T10:57:39.489Z,63.87
2019-05-02T11:00:13.392Z,63.83
2019-05-02T11:02:48.818Z,64.13
2019-05-02T11:05:22.530Z,62.80
2019-05-02T11:08:04.724Z,59.27
2019-05-02T11:10:32.859Z,59.07
2019-05-02T11:13:07.452Z,59.03
2019-05-02T11:15:54.036Z,56.63
2019-05-02T11:18:40.195Z,56.17
2019-05-02T11:21:08.190Z,57.07
2019-05-02T11:23:37.843Z,58.37
2019-05-02T11:26:16.324Z,53.13
2019-05-02T11:28:44.335Z,56.00
2019-05-02T11:31:16.824Z,57.60
2019-05-02T11:33:49.505Z,57.73
2019-05-02T11:36:22.447Z,50.43
2019-05-02T11:39:03.327Z,60.97
2019-05-02T11:41:31.890Z,52.33
2019-05-02T11:44:04.338Z,62.03
2019-05-02T11:46:37.575Z,52.17
2019-05-02T11:49:12.778Z,54.00
2019-05-02T11:51:47.088Z,55.60
2019-05-02T11:54:19.709Z,47.97
2019-05-02T11:56:53.359Z,52.90
2019-05-02T11:59:27.772Z,48.57
2019-05-02T12:02:09.563Z,47.60
2019-05-02T12:04:41.898Z,47.57
2019-05-02T12:07:15.864Z,48.03
2019-05-02T12:09:52.076Z,50.13
2019-05-02T12:12:20.453Z,46.33
2019-05-02T12:14:52.829Z,46.43
2019-05-02T12:17:25.465Z,45.50
2019-05-02T12:19:58.798Z,45.27
2019-05-02T12:22:32.448Z,39.43
2019-05-02T12:25:06.982Z,40.43
2019-05-02T12:27:38.506Z,38.60
2019-05-02T12:30:12.627Z,41.23
2019-05-02T12:32:44.418Z,38.47
2019-05-02T12:35:15.957Z,35.00
2019-05-02T12:37:52.405Z,36.30
2019-05-02T12:40:21.746Z,39.20
2019-05-02T12:42:53.483Z,37.90
2019-05-02T12:45:29.694Z,35.50
2019-05-02T12:48:03.860Z,38.97
2019-05-02T12:50:35.285Z,35.00
2019-05-02T12:53:07.886Z,36.27
2019-05-02T12:55:39.681Z,37.33
2019-05-02T12:58:13.287Z,33.43
2019-05-02T13:00:45.601Z,33.83
2019-05-02T13:03:28.204Z,35.73
2019-05-02T13:06:02.861Z,33.23
2019-05-02T13:08:35.281Z,42.27
2019-05-02T13:11:22.248Z,31.53
2019-05-02T13:13:54.471Z,29.43
2019-05-02T13:16:26.034Z,33.73
2019-05-02T13:19:02.869Z,34.37
2019-05-02T13:21:41.749Z,35.60
2019-05-02T13:24:16.193Z,35.83
2019-05-02T13:26:53.938Z,37.47
2019-05-02T13:29:25.678Z,36.23
2019-05-02T13:32:16.897Z,34.90
2019-05-02T13:34:48.644Z,33.40
2019-05-02T13:37:22.593Z,34.90
2019-05-02T13:39:59.651Z,40.53
2019-05-02T13:42:33.776Z,41.30
2019-05-02T13:45:09.390Z,42.83
2019-05-02T13:47:42.630Z,44.40
2019-05-02T13:50:14.677Z,44.17
2019-05-02T13:52:52.951Z,52.47
2019-05-02T13:55:23.639Z,61.43
2019-05-02T13:57:55.653Z,63.20
2019-05-02T14:00:31.836Z,72.53
2019-05-02T14:03:04.740Z,73.23
2019-05-02T14:05:42.178Z,78.00
2019-05-02T14:08:27.644Z,76.90
2019-05-02T14:11:07.984Z,78.63
2019-05-02T14:13:39.571Z,88.40
2019-05-02T14:16:12.280Z,85.33
2019-05-02T14:18:44.790Z,87.13
2019-05-02T14:21:17.032Z,69.90
2019-05-02T14:23:51.688Z,82.37
2019-05-02T14:26:30.311Z,82.50
2019-05-02T14:28:57.765Z,82.07
2019-05-02T14:31:32.348Z,80.67
2019-05-02T14:34:22.589Z,81.57
2019-05-02T14:36:59.176Z,77.77
2019-05-02T14:39:29.587Z,83.97
2019-05-02T14:42:03.014Z,76.90
2019-05-02T14:45:01.510Z,64.30
2019-05-02T14:47:10.016Z,78.40
2019-05-02T14:49:43.005Z,75.63
2019-05-02T14:52:14.409Z,70.83
2019-05-02T14:54:47.972Z,73.50
2019-05-02T14:57:25.440Z,73.77
2019-05-02T14:59:59.178Z,75.33
2019-05-02T15:02:39.257Z,74.37
2019-05-02T15:05:12.802Z,74.93
2019-05-02T15:07:45.602Z,73.13
2019-05-02T15:10:17.281Z,68.20
2019-05-02T15:12:51.678Z,67.00
2019-05-02T15:15:23.458Z,68.37
2019-05-02T15:17:57.058Z,70.40
2019-05-02T15:20:38.650Z,66.33
2019-05-02T15:23:07.261Z,68.10
2019-05-02T15:25:38.073Z,65.63
2019-05-02T15:28:13.122Z,65.53
2019-05-02T15:30:49.452Z,66.30
2019-05-02T15:33:22.300Z,66.00
2019-05-02T15:36:06.229Z,66.27
2019-05-02T15:38:37.080Z,66.43
2019-05-02T15:41:12.581Z,65.27
2019-05-02T15:43:44.185Z,62.33
2019-05-02T15:46:22.760Z,72.33
2019-05-02T15:48:51.861Z,133.37
2019-05-02T15:51:23.296Z,72.47
2019-05-02T15:54:06.017Z,99.27
2019-05-02T15:56:32.424Z,63.70
2019-05-02T15:59:06.503Z,202.50
2019-05-02T16:01:47.383Z,140.90
2019-05-02T16:04:24.112Z,168.23
2019-05-02T16:06:53.306Z,150.37
2019-05-02T16:09:25.013Z,156.23
2019-05-02T16:11:57.138Z,121.40
2019-05-02T16:14:34.231Z,174.87
2019-05-02T16:17:03.832Z,188.40
2019-05-02T16:19:38.121Z,172.87
2019-05-02T16:22:11.607Z,156.83
2019-05-02T16:24:48.796Z,133.00
2019-05-02T16:27:23.714Z,150.53
2019-05-02T16:29:52.670Z,191.97
2019-05-02T16:32:25.873Z,208.03
2019-05-02T16:35:00.269Z,207.13
2019-05-02T16:37:32.786Z,184.00
2019-05-02T16:40:07.771Z,193.43
2019-05-02T16:42:41.875Z,174.57
2019-05-02T16:45:15.369Z,149.20
2019-05-02T16:47:49.849Z,148.27
2019-05-02T16:50:20.234Z,145.53
2019-05-02T16:52:53.209Z,177.23
2019-05-02T16:55:26.593Z,152.87
2019-05-02T16:58:02.749Z,152.10
2019-05-02T17:00:37.090Z,186.57
2019-05-02T17:03:05.833Z,183.47
2019-05-02T17:05:39.378Z,224.13
2019-05-02T17:08:18.677Z,169.60
2019-05-02T17:10:53.740Z,163.37
2019-05-02T17:13:27.376Z,173.77
2019-05-02T17:15:58.726Z,128.43
2019-05-02T17:18:32.693Z,119.20
2019-05-02T17:21:05.854Z,122.40
2019-05-02T17:23:42.189Z,131.13
2019-05-02T17:26:12.629Z,120.47
2019-05-02T17:28:47.093Z,170.23
2019-05-02T17:31:20.548Z,157.57
2019-05-02T17:33:52.928Z,136.53
2019-05-02T17:36:28.675Z,165.50
2019-05-02T17:39:06.752Z,173.57
2019-05-02T17:41:37.007Z,180.23
2019-05-02T17:44:13.031Z,143.70
2019-05-02T17:46:44.697Z,179.47
2019-05-02T17:49:23.831Z,139.13
2019-05-02T17:52:11.208Z,165.93
2019-05-02T17:54:43.264Z,142.03
2019-05-02T17:57:14.737Z,169.67
2019-05-02T17:59:46.465Z,158.03
2019-05-02T18:02:18.963Z,151.37
2019-05-02T18:04:52.095Z,161.40
2019-05-02T18:07:32.292Z,151.53
2019-05-02T18:09:59.826Z,164.43
2019-05-02T18:12:33.837Z,166.23
2019-05-02T18:15:11.995Z,136.50
2019-05-02T18:17:44.873Z,164.37
2019-05-02T18:20:17.493Z,146.97
2019-05-02T18:22:49.269Z,158.97
2019-05-02T18:25:24.163Z,174.33
2019-05-02T18:27:54.808Z,150.97
2019-05-02T18:30:27.067Z,148.90
2019-05-02T18:33:05.269Z,165.20
2019-05-02T18:35:37.336Z,155.60
2019-05-02T18:38:09.688Z,153.07
2019-05-02T18:40:42.577Z,165.73
2019-05-02T18:43:16.750Z,125.27
2019-05-02T18:45:49.266Z,143.17
2019-05-02T18:48:22.006Z,156.77
2019-05-02T18:50:56.045Z,145.47
2019-05-02T18:53:32.715Z,136.37
2019-05-02T18:56:04.237Z,183.60
2019-05-02T18:58:41.323Z,160.17
2019-05-02T19:01:14.016Z,172.93
2019-05-02T19:03:47.084Z,150.37
2019-05-02T19:06:21.881Z,162.60
2019-05-02T19:08:55.471Z,123.97
2019-05-02T19:11:31.088Z,161.70
2019-05-02T19:14:00.055Z,155.50
2019-05-02T19:16:34.095Z,151.33
2019-05-02T19:19:07.266Z,157.33
2019-05-02T19:21:39.548Z,142.13
2019-05-02T19:24:13.112Z,156.53
2019-05-02T19:26:49.151Z,140.50
2019-05-02T19:29:22.127Z,154.83
2019-05-02T19:31:54.107Z,164.50
2019-05-02T19:34:27.111Z,162.20
2019-05-02T19:37:03.128Z,136.93
2019-05-02T19:39:39.156Z,133.30
2019-05-02T19:42:12.312Z,500.37
2019-05-02T19:44:44.195Z,178.23
2019-05-02T19:47:17.604Z,106.10
2019-05-02T19:49:52.382Z,134.67
2019-05-02T19:52:28.554Z,119.17
2019-05-02T19:55:00.014Z,95.70
2019-05-02T19:57:32.487Z,103.47
2019-05-02T20:00:06.685Z,84.77
2019-05-02T20:02:42.426Z,62.87
2019-05-02T20:05:16.575Z,50.40
2019-05-02T20:07:46.133Z,26.70
2019-05-02T20:10:19.413Z,24.80
2019-05-02T20:12:52.785Z,21.07
2019-05-02T20:15:27.335Z,13.80
2019-05-02T20:18:02.715Z,12.60
2019-05-02T20:20:51.997Z,12.57
2019-05-02T20:23:31.412Z,11.27
2019-05-02T20:25:59.193Z,11.77
2019-05-02T20:28:31.858Z,8.97
2019-05-02T20:31:03.282Z,11.20
2019-05-02T20:33:34.153Z,11.40
2019-05-02T20:36:07.050Z,10.30
2019-05-02T20:38:39.401Z,11.07
2019-05-02T20:41:12.760Z,9.17
2019-05-02T20:43:45.177Z,12.47
2019-05-02T20:46:21.705Z,11.43
2019-05-02T20:48:54.637Z,12.83
2019-05-02T20:51:27.393Z,9.53
2019-05-02T20:53:58.945Z,10.07
2019-05-02T20:56:32.078Z,10.27
2019-05-02T20:59:05.618Z,10.37
2019-05-02T21:01:37.457Z,13.87
2019-05-02T21:04:11.957Z,11.87
2019-05-02T21:06:52.690Z,9.23
2019-05-02T21:09:39.089Z,9.57
2019-05-02T21:12:12.474Z,7.33
2019-05-02T21:14:44.824Z,9.60
2019-05-02T21:17:17.122Z,12.97
2019-05-02T21:19:49.397Z,11.53
2019-05-02T21:22:22.414Z,11.17
2019-05-02T21:24:54.774Z,13.10
2019-05-02T21:27:28.025Z,9.13
2019-05-02T21:30:00.690Z,9.27
2019-05-02T21:32:32.566Z,12.33
2019-05-02T21:35:06.939Z,7.70
2019-05-02T21:37:39.738Z,12.67
2019-05-02T21:40:13.934Z,8.70
2019-05-02T21:42:45.681Z,12.17
2019-05-02T21:45:17.553Z,11.37
2019-05-02T21:47:52.787Z,12.87
2019-05-02T21:50:32.669Z,14.77
2019-05-02T21:53:18.730Z,17.50
2019-05-02T21:55:53.114Z,16.13
2019-05-02T21:58:25.854Z,12.83
2019-05-02T22:01:02.200Z,14.47
2019-05-02T22:03:34.934Z,17.30
2019-05-02T22:06:08.655Z,15.57
2019-05-02T22:08:41.811Z,19.03
2019-05-02T22:11:15.173Z,12.10
2019-05-02T22:13:49.293Z,16.63
2019-05-02T22:16:21.841Z,14.70
2019-05-02T22:18:52.997Z,16.63
2019-05-02T22:21:24.345Z,13.00
2019-05-02T22:24:07.553Z,19.73
2019-05-02T22:26:30.365Z,13.07
2019-05-02T22:29:03.226Z,15.83
2019-05-02T22:31:34.839Z,17.37
2019-05-02T22:34:07.260Z,16.93
2019-05-02T22:36:39.910Z,18.57
2019-05-02T22:39:22.234Z,14.37
2019-05-02T22:41:54.314Z,13.83
2019-05-02T22:44:28.777Z,15.47
2019-05-02T22:47:00.365Z,11.77
2019-05-02T22:49:32.113Z,16.23
2019-05-02T22:52:06.350Z,16.57
2019-05-02T22:54:38.670Z,16.93
2019-05-02T22:57:11.567Z,14.10
2019-05-02T22:59:44.493Z,18.80
2019-05-02T23:02:17.328Z,18.30
2019-05-02T23:04:52.614Z,22.67
2019-05-02T23:07:25.458Z,17.83
2019-05-02T23:09:57.818Z,16.27
2019-05-02T23:12:29.276Z,18.73
2019-05-02T23:15:02.003Z,20.03
2019-05-02T23:17:35.333Z,18.03
2019-05-02T23:20:08.210Z,18.43
2019-05-02T23:22:41.809Z,18.50
2019-05-02T23:25:15.696Z,18.33
2019-05-02T23:27:48.846Z,16.23
2019-05-02T23:30:23.197Z,13.63
2019-05-02T23:32:55.702Z,19.03
2019-05-02T23:35:27.122Z,19.53
2019-05-02T23:37:59.739Z,14.33
2019-05-02T23:40:32.277Z,18.00
2019-05-02T23:43:04.966Z,18.63
2019-05-02T23:45:36.808Z,20.17
2019-05-02T23:48:09.295Z,20.47
2019-05-02T23:50:41.072Z,15.13
2019-05-02T23:53:15.405Z,17.33
2019-05-02T23:55:47.105Z,11.33
2019-05-02T23:58:19.390Z,18.60
